sensor_id;sensor_type;location;lat;lon;timestamp;P1;durP1;ratioP1;P2;durP2;ratioP2
70320;SDS011;61127;55.826;37.046;2023-08-20T00:00:30;17.98;;;12.25;;
70320;SDS011;61127;55.826;37.046;2023-08-20T00:03:18;15.50;;;12.48;;
70320;SDS011;61127;55.826;37.046;2023-08-20T00:05:43;16.50;;;11.43;;
70320;SDS011;61127;55.826;37.046;2023-08-20T00:08:10;18.52;;;11.93;;
70320;SDS011;61127;55.826;37.046;2023-08-20T00:10:36;18.13;;;12.07;;
70320;SDS011;61127;55.826;37.046;2023-08-20T00:13:02;14.85;;;12.05;;
70320;SDS011;61127;55.826;37.046;2023-08-20T00:15:29;17.02;;;12.10;;
70320;SDS011;61127;55.826;37.046;2023-08-20T00:17:56;18.83;;;12.10;;
70320;SDS011;61127;55.826;37.046;2023-08-20T00:20:22;15.27;;;12.32;;
70320;SDS011;61127;55.826;37.046;2023-08-20T00:22:52;15.30;;;11.60;;
70320;SDS011;61127;55.826;37.046;2023-08-20T00:25:18;17.20;;;12.57;;
70320;SDS011;61127;55.826;37.046;2023-08-20T00:27:44;19.42;;;12.48;;
70320;SDS011;61127;55.826;37.046;2023-08-20T00:30:10;17.57;;;11.83;;
70320;SDS011;61127;55.826;37.046;2023-08-20T00:32:37;17.23;;;12.32;;
70320;SDS011;61127;55.826;37.046;2023-08-20T00:35:03;20.58;;;12.45;;
70320;SDS011;61127;55.826;37.046;2023-08-20T00:37:31;17.67;;;11.40;;
70320;SDS011;61127;55.826;37.046;2023-08-20T00:39:57;18.23;;;11.85;;
70320;SDS011;61127;55.826;37.046;2023-08-20T00:42:24;22.77;;;13.20;;
70320;SDS011;61127;55.826;37.046;2023-08-20T00:44:55;18.38;;;12.88;;
70320;SDS011;61127;55.826;37.046;2023-08-20T00:47:21;19.80;;;13.52;;
70320;SDS011;61127;55.826;37.046;2023-08-20T00:49:47;19.35;;;12.75;;
70320;SDS011;61127;55.826;37.046;2023-08-20T00:52:15;20.58;;;13.88;;
70320;SDS011;61127;55.826;37.046;2023-08-20T00:54:44;22.50;;;13.67;;
70320;SDS011;61127;55.826;37.046;2023-08-20T00:57:14;21.67;;;13.32;;
70320;SDS011;61127;55.826;37.046;2023-08-20T00:59:40;18.55;;;12.73;;
70320;SDS011;61127;55.826;37.046;2023-08-20T01:02:09;19.90;;;13.45;;
70320;SDS011;61127;55.826;37.046;2023-08-20T01:04:34;20.83;;;13.93;;
70320;SDS011;61127;55.826;37.046;2023-08-20T01:12:29;17.02;;;13.65;;
70320;SDS011;61127;55.826;37.046;2023-08-20T01:14:55;19.63;;;13.00;;
70320;SDS011;61127;55.826;37.046;2023-08-20T01:17:21;19.50;;;12.80;;
70320;SDS011;61127;55.826;37.046;2023-08-20T01:19:47;22.67;;;13.30;;
70320;SDS011;61127;55.826;37.046;2023-08-20T01:28:28;20.02;;;14.15;;
70320;SDS011;61127;55.826;37.046;2023-08-20T01:30:57;20.90;;;15.10;;
70320;SDS011;61127;55.826;37.046;2023-08-20T01:33:24;20.63;;;14.70;;
70320;SDS011;61127;55.826;37.046;2023-08-20T01:35:53;21.40;;;14.88;;
70320;SDS011;61127;55.826;37.046;2023-08-20T01:38:21;20.60;;;15.57;;
70320;SDS011;61127;55.826;37.046;2023-08-20T01:40:47;24.80;;;14.85;;
70320;SDS011;61127;55.826;37.046;2023-08-20T01:43:14;20.87;;;14.33;;
70320;SDS011;61127;55.826;37.046;2023-08-20T01:45:41;21.95;;;15.27;;
70320;SDS011;61127;55.826;37.046;2023-08-20T01:48:07;20.00;;;14.50;;
70320;SDS011;61127;55.826;37.046;2023-08-20T01:50:34;19.10;;;13.55;;
70320;SDS011;61127;55.826;37.046;2023-08-20T01:53:01;22.00;;;14.15;;
70320;SDS011;61127;55.826;37.046;2023-08-20T01:55:28;21.53;;;14.27;;
70320;SDS011;61127;55.826;37.046;2023-08-20T01:57:55;20.45;;;14.50;;
70320;SDS011;61127;55.826;37.046;2023-08-20T02:00:21;20.38;;;14.40;;
70320;SDS011;61127;55.826;37.046;2023-08-20T02:02:47;18.58;;;14.30;;
70320;SDS011;61127;55.826;37.046;2023-08-20T02:05:13;21.05;;;14.77;;
70320;SDS011;61127;55.826;37.046;2023-08-20T02:07:39;19.83;;;14.30;;
70320;SDS011;61127;55.826;37.046;2023-08-20T02:10:05;21.30;;;14.63;;
70320;SDS011;61127;55.826;37.046;2023-08-20T02:12:31;17.98;;;14.30;;
70320;SDS011;61127;55.826;37.046;2023-08-20T02:14:57;20.65;;;15.57;;
70320;SDS011;61127;55.826;37.046;2023-08-20T02:17:24;20.00;;;14.43;;
70320;SDS011;61127;55.826;37.046;2023-08-20T02:19:50;25.23;;;14.55;;
70320;SDS011;61127;55.826;37.046;2023-08-20T02:22:16;19.48;;;13.60;;
70320;SDS011;61127;55.826;37.046;2023-08-20T02:24:42;18.73;;;13.20;;
70320;SDS011;61127;55.826;37.046;2023-08-20T02:27:08;17.05;;;13.20;;
70320;SDS011;61127;55.826;37.046;2023-08-20T02:29:34;17.38;;;12.98;;
70320;SDS011;61127;55.826;37.046;2023-08-20T02:32:00;17.77;;;13.57;;
70320;SDS011;61127;55.826;37.046;2023-08-20T02:34:29;18.15;;;13.57;;
70320;SDS011;61127;55.826;37.046;2023-08-20T02:36:55;19.63;;;12.70;;
70320;SDS011;61127;55.826;37.046;2023-08-20T02:39:22;20.10;;;12.93;;
70320;SDS011;61127;55.826;37.046;2023-08-20T02:41:49;17.77;;;13.52;;
70320;SDS011;61127;55.826;37.046;2023-08-20T02:44:15;15.68;;;12.45;;
70320;SDS011;61127;55.826;37.046;2023-08-20T02:46:41;13.13;;;9.60;;
70320;SDS011;61127;55.826;37.046;2023-08-20T02:49:10;12.77;;;7.90;;
70320;SDS011;61127;55.826;37.046;2023-08-20T02:51:36;13.25;;;8.20;;
70320;SDS011;61127;55.826;37.046;2023-08-20T02:54:02;15.50;;;8.05;;
70320;SDS011;61127;55.826;37.046;2023-08-20T02:56:28;9.18;;;6.22;;
70320;SDS011;61127;55.826;37.046;2023-08-20T02:58:54;10.18;;;7.30;;
70320;SDS011;61127;55.826;37.046;2023-08-20T03:01:21;10.97;;;7.20;;
70320;SDS011;61127;55.826;37.046;2023-08-20T03:03:48;21.08;;;8.48;;
70320;SDS011;61127;55.826;37.046;2023-08-20T03:06:14;14.02;;;8.13;;
70320;SDS011;61127;55.826;37.046;2023-08-20T03:08:40;14.07;;;7.35;;
70320;SDS011;61127;55.826;37.046;2023-08-20T03:11:06;12.00;;;7.37;;
70320;SDS011;61127;55.826;37.046;2023-08-20T03:13:32;14.80;;;7.63;;
70320;SDS011;61127;55.826;37.046;2023-08-20T03:15:59;12.80;;;7.45;;
70320;SDS011;61127;55.826;37.046;2023-08-20T03:18:25;13.43;;;8.00;;
70320;SDS011;61127;55.826;37.046;2023-08-20T03:20:51;12.45;;;8.45;;
70320;SDS011;61127;55.826;37.046;2023-08-20T03:23:17;16.67;;;8.87;;
70320;SDS011;61127;55.826;37.046;2023-08-20T03:25:43;11.45;;;8.77;;
70320;SDS011;61127;55.826;37.046;2023-08-20T03:28:09;19.00;;;9.45;;
70320;SDS011;61127;55.826;37.046;2023-08-20T03:30:37;16.40;;;9.82;;
70320;SDS011;61127;55.826;37.046;2023-08-20T03:33:03;21.53;;;9.67;;
70320;SDS011;61127;55.826;37.046;2023-08-20T03:35:32;18.83;;;9.20;;
70320;SDS011;61127;55.826;37.046;2023-08-20T03:37:58;16.02;;;9.40;;
70320;SDS011;61127;55.826;37.046;2023-08-20T03:40:24;15.73;;;9.85;;
70320;SDS011;61127;55.826;37.046;2023-08-20T03:42:50;19.38;;;11.02;;
70320;SDS011;61127;55.826;37.046;2023-08-20T03:45:16;16.77;;;9.83;;
70320;SDS011;61127;55.826;37.046;2023-08-20T03:47:42;16.58;;;10.05;;
70320;SDS011;61127;55.826;37.046;2023-08-20T03:50:10;16.30;;;10.23;;
70320;SDS011;61127;55.826;37.046;2023-08-20T03:52:36;16.77;;;10.27;;
70320;SDS011;61127;55.826;37.046;2023-08-20T03:55:02;16.33;;;10.27;;
70320;SDS011;61127;55.826;37.046;2023-08-20T03:57:28;17.85;;;10.88;;
70320;SDS011;61127;55.826;37.046;2023-08-20T03:59:54;16.45;;;9.85;;
70320;SDS011;61127;55.826;37.046;2023-08-20T04:02:20;15.80;;;9.57;;
70320;SDS011;61127;55.826;37.046;2023-08-20T04:04:46;16.60;;;10.50;;
70320;SDS011;61127;55.826;37.046;2023-08-20T04:07:12;14.88;;;10.43;;
70320;SDS011;61127;55.826;37.046;2023-08-20T04:09:38;14.83;;;10.03;;
70320;SDS011;61127;55.826;37.046;2023-08-20T04:12:06;16.85;;;10.15;;
70320;SDS011;61127;55.826;37.046;2023-08-20T04:14:32;17.67;;;10.98;;
70320;SDS011;61127;55.826;37.046;2023-08-20T04:16:58;16.60;;;10.48;;
70320;SDS011;61127;55.826;37.046;2023-08-20T04:19:24;16.87;;;10.53;;
70320;SDS011;61127;55.826;37.046;2023-08-20T04:21:50;18.65;;;11.10;;
70320;SDS011;61127;55.826;37.046;2023-08-20T04:24:16;17.67;;;11.70;;
70320;SDS011;61127;55.826;37.046;2023-08-20T04:26:43;18.27;;;11.40;;
70320;SDS011;61127;55.826;37.046;2023-08-20T04:29:09;17.60;;;10.77;;
70320;SDS011;61127;55.826;37.046;2023-08-20T04:31:35;14.80;;;10.75;;
70320;SDS011;61127;55.826;37.046;2023-08-20T04:34:08;16.88;;;11.35;;
70320;SDS011;61127;55.826;37.046;2023-08-20T04:36:39;16.00;;;10.90;;
70320;SDS011;61127;55.826;37.046;2023-08-20T04:39:05;18.30;;;11.80;;
70320;SDS011;61127;55.826;37.046;2023-08-20T04:41:33;18.98;;;11.02;;
70320;SDS011;61127;55.826;37.046;2023-08-20T04:43:59;21.52;;;12.07;;
70320;SDS011;61127;55.826;37.046;2023-08-20T04:46:26;17.80;;;11.00;;
70320;SDS011;61127;55.826;37.046;2023-08-20T04:48:55;17.73;;;11.37;;
70320;SDS011;61127;55.826;37.046;2023-08-20T04:51:21;17.23;;;11.80;;
70320;SDS011;61127;55.826;37.046;2023-08-20T04:53:47;17.80;;;12.07;;
70320;SDS011;61127;55.826;37.046;2023-08-20T04:56:15;17.80;;;11.70;;
70320;SDS011;61127;55.826;37.046;2023-08-20T04:58:41;20.45;;;12.82;;
70320;SDS011;61127;55.826;37.046;2023-08-20T05:01:08;18.10;;;11.97;;
70320;SDS011;61127;55.826;37.046;2023-08-20T05:03:35;19.08;;;12.50;;
70320;SDS011;61127;55.826;37.046;2023-08-20T05:06:01;15.13;;;10.80;;
70320;SDS011;61127;55.826;37.046;2023-08-20T05:08:28;19.38;;;11.60;;
70320;SDS011;61127;55.826;37.046;2023-08-20T05:10:54;15.52;;;11.63;;
70320;SDS011;61127;55.826;37.046;2023-08-20T05:13:20;17.43;;;12.30;;
70320;SDS011;61127;55.826;37.046;2023-08-20T05:15:48;18.60;;;12.27;;
70320;SDS011;61127;55.826;37.046;2023-08-20T05:18:14;16.75;;;12.43;;
70320;SDS011;61127;55.826;37.046;2023-08-20T05:20:40;23.57;;;12.43;;
70320;SDS011;61127;55.826;37.046;2023-08-20T05:23:07;19.60;;;13.07;;
70320;SDS011;61127;55.826;37.046;2023-08-20T05:25:33;21.98;;;14.35;;
70320;SDS011;61127;55.826;37.046;2023-08-20T05:27:59;26.38;;;17.98;;
70320;SDS011;61127;55.826;37.046;2023-08-20T05:30:26;24.13;;;16.02;;
70320;SDS011;61127;55.826;37.046;2023-08-20T05:32:54;21.43;;;15.30;;
70320;SDS011;61127;55.826;37.046;2023-08-20T05:35:21;26.15;;;15.95;;
70320;SDS011;61127;55.826;37.046;2023-08-20T05:37:48;22.35;;;15.75;;
70320;SDS011;61127;55.826;37.046;2023-08-20T05:40:14;20.50;;;14.05;;
70320;SDS011;61127;55.826;37.046;2023-08-20T05:42:41;13.95;;;10.85;;
70320;SDS011;61127;55.826;37.046;2023-08-20T05:45:07;20.10;;;11.77;;
70320;SDS011;61127;55.826;37.046;2023-08-20T05:47:34;15.43;;;10.63;;
70320;SDS011;61127;55.826;37.046;2023-08-20T05:50:02;12.43;;;10.15;;
70320;SDS011;61127;55.826;37.046;2023-08-20T05:52:29;13.23;;;10.15;;
70320;SDS011;61127;55.826;37.046;2023-08-20T05:54:55;13.77;;;10.00;;
70320;SDS011;61127;55.826;37.046;2023-08-20T05:57:21;15.47;;;9.57;;
70320;SDS011;61127;55.826;37.046;2023-08-20T05:59:47;12.98;;;9.40;;
70320;SDS011;61127;55.826;37.046;2023-08-20T06:02:16;12.40;;;8.13;;
70320;SDS011;61127;55.826;37.046;2023-08-20T06:04:46;12.00;;;8.50;;
70320;SDS011;61127;55.826;37.046;2023-08-20T06:07:12;11.40;;;8.35;;
70320;SDS011;61127;55.826;37.046;2023-08-20T06:09:38;11.33;;;7.80;;
70320;SDS011;61127;55.826;37.046;2023-08-20T06:12:04;8.52;;;7.63;;
70320;SDS011;61127;55.826;37.046;2023-08-20T06:14:30;10.00;;;7.50;;
70320;SDS011;61127;55.826;37.046;2023-08-20T06:16:56;11.43;;;7.28;;
70320;SDS011;61127;55.826;37.046;2023-08-20T06:19:23;9.80;;;6.30;;
70320;SDS011;61127;55.826;37.046;2023-08-20T06:21:49;10.75;;;6.50;;
70320;SDS011;61127;55.826;37.046;2023-08-20T06:24:15;9.77;;;6.50;;
70320;SDS011;61127;55.826;37.046;2023-08-20T06:26:41;8.30;;;6.22;;
70320;SDS011;61127;55.826;37.046;2023-08-20T06:29:09;8.20;;;6.57;;
70320;SDS011;61127;55.826;37.046;2023-08-20T06:31:35;7.97;;;6.28;;
70320;SDS011;61127;55.826;37.046;2023-08-20T06:34:01;9.48;;;6.05;;
70320;SDS011;61127;55.826;37.046;2023-08-20T06:36:27;9.18;;;6.22;;
70320;SDS011;61127;55.826;37.046;2023-08-20T06:38:53;8.43;;;6.40;;
70320;SDS011;61127;55.826;37.046;2023-08-20T06:41:19;9.93;;;6.55;;
70320;SDS011;61127;55.826;37.046;2023-08-20T06:43:45;10.38;;;6.45;;
70320;SDS011;61127;55.826;37.046;2023-08-20T06:46:11;8.80;;;6.05;;
70320;SDS011;61127;55.826;37.046;2023-08-20T06:48:37;7.27;;;5.87;;
70320;SDS011;61127;55.826;37.046;2023-08-20T06:51:18;8.52;;;6.43;;
70320;SDS011;61127;55.826;37.046;2023-08-20T06:53:45;10.98;;;6.40;;
70320;SDS011;61127;55.826;37.046;2023-08-20T06:56:11;7.05;;;6.18;;
70320;SDS011;61127;55.826;37.046;2023-08-20T06:58:37;7.60;;;6.33;;
70320;SDS011;61127;55.826;37.046;2023-08-20T07:01:04;8.32;;;6.10;;
70320;SDS011;61127;55.826;37.046;2023-08-20T07:03:37;8.77;;;5.60;;
70320;SDS011;61127;55.826;37.046;2023-08-20T07:06:04;7.70;;;5.68;;
70320;SDS011;61127;55.826;37.046;2023-08-20T07:08:31;6.80;;;5.50;;
70320;SDS011;61127;55.826;37.046;2023-08-20T07:10:57;7.13;;;5.70;;
70320;SDS011;61127;55.826;37.046;2023-08-20T07:13:24;8.18;;;5.60;;
70320;SDS011;61127;55.826;37.046;2023-08-20T07:15:50;7.88;;;5.90;;
70320;SDS011;61127;55.826;37.046;2023-08-20T07:18:17;8.25;;;5.80;;
70320;SDS011;61127;55.826;37.046;2023-08-20T07:20:43;6.50;;;5.30;;
70320;SDS011;61127;55.826;37.046;2023-08-20T07:23:09;7.50;;;5.65;;
70320;SDS011;61127;55.826;37.046;2023-08-20T07:25:40;10.80;;;5.82;;
70320;SDS011;61127;55.826;37.046;2023-08-20T07:28:07;9.40;;;5.75;;
70320;SDS011;61127;55.826;37.046;2023-08-20T07:30:34;9.03;;;5.60;;
70320;SDS011;61127;55.826;37.046;2023-08-20T07:33:01;6.93;;;5.25;;
70320;SDS011;61127;55.826;37.046;2023-08-20T07:35:28;9.38;;;5.45;;
70320;SDS011;61127;55.826;37.046;2023-08-20T07:37:54;6.90;;;5.25;;
70320;SDS011;61127;55.826;37.046;2023-08-20T07:40:20;6.20;;;5.20;;
70320;SDS011;61127;55.826;37.046;2023-08-20T07:42:46;7.63;;;5.40;;
70320;SDS011;61127;55.826;37.046;2023-08-20T07:45:12;6.03;;;5.43;;
70320;SDS011;61127;55.826;37.046;2023-08-20T07:47:38;5.82;;;5.05;;
70320;SDS011;61127;55.826;37.046;2023-08-20T07:50:05;8.00;;;5.50;;
70320;SDS011;61127;55.826;37.046;2023-08-20T07:52:31;8.55;;;5.35;;
70320;SDS011;61127;55.826;37.046;2023-08-20T07:54:58;10.00;;;5.25;;
70320;SDS011;61127;55.826;37.046;2023-08-20T07:57:24;7.43;;;5.30;;
70320;SDS011;61127;55.826;37.046;2023-08-20T07:59:50;8.40;;;5.57;;
70320;SDS011;61127;55.826;37.046;2023-08-20T08:02:16;7.97;;;5.10;;
70320;SDS011;61127;55.826;37.046;2023-08-20T08:04:42;5.65;;;5.00;;
70320;SDS011;61127;55.826;37.046;2023-08-20T08:07:09;6.85;;;4.93;;
70320;SDS011;61127;55.826;37.046;2023-08-20T08:09:35;8.57;;;5.10;;
70320;SDS011;61127;55.826;37.046;2023-08-20T08:12:02;7.45;;;5.20;;
70320;SDS011;61127;55.826;37.046;2023-08-20T08:14:28;5.70;;;4.65;;
70320;SDS011;61127;55.826;37.046;2023-08-20T08:16:54;7.82;;;5.15;;
70320;SDS011;61127;55.826;37.046;2023-08-20T08:19:20;7.93;;;4.60;;
70320;SDS011;61127;55.826;37.046;2023-08-20T08:21:46;6.88;;;4.40;;
70320;SDS011;61127;55.826;37.046;2023-08-20T08:24:12;4.95;;;4.13;;
70320;SDS011;61127;55.826;37.046;2023-08-20T08:26:39;6.32;;;4.18;;
70320;SDS011;61127;55.826;37.046;2023-08-20T08:29:06;5.68;;;4.25;;
70320;SDS011;61127;55.826;37.046;2023-08-20T08:31:33;6.33;;;3.93;;
70320;SDS011;61127;55.826;37.046;2023-08-20T08:34:00;7.18;;;4.10;;
70320;SDS011;61127;55.826;37.046;2023-08-20T08:36:28;5.53;;;4.30;;
70320;SDS011;61127;55.826;37.046;2023-08-20T08:38:54;7.15;;;4.65;;
70320;SDS011;61127;55.826;37.046;2023-08-20T08:41:21;5.33;;;4.37;;
70320;SDS011;61127;55.826;37.046;2023-08-20T08:43:51;6.22;;;4.55;;
70320;SDS011;61127;55.826;37.046;2023-08-20T08:46:17;5.50;;;4.25;;
70320;SDS011;61127;55.826;37.046;2023-08-20T08:48:43;8.02;;;5.22;;
70320;SDS011;61127;55.826;37.046;2023-08-20T08:51:11;6.90;;;4.90;;
70320;SDS011;61127;55.826;37.046;2023-08-20T08:53:38;5.18;;;4.30;;
70320;SDS011;61127;55.826;37.046;2023-08-20T08:56:04;7.25;;;4.35;;
70320;SDS011;61127;55.826;37.046;2023-08-20T08:58:32;4.88;;;4.20;;
70320;SDS011;61127;55.826;37.046;2023-08-20T09:00:59;6.95;;;3.92;;
70320;SDS011;61127;55.826;37.046;2023-08-20T09:03:25;4.63;;;4.10;;
70320;SDS011;61127;55.826;37.046;2023-08-20T09:05:55;5.50;;;4.10;;
70320;SDS011;61127;55.826;37.046;2023-08-20T09:08:26;8.68;;;4.57;;
70320;SDS011;61127;55.826;37.046;2023-08-20T09:10:53;6.05;;;4.88;;
70320;SDS011;61127;55.826;37.046;2023-08-20T09:13:24;4.50;;;4.03;;
70320;SDS011;61127;55.826;37.046;2023-08-20T09:15:52;6.77;;;4.20;;
70320;SDS011;61127;55.826;37.046;2023-08-20T09:18:18;4.60;;;3.83;;
70320;SDS011;61127;55.826;37.046;2023-08-20T09:20:45;4.45;;;3.90;;
70320;SDS011;61127;55.826;37.046;2023-08-20T09:23:13;5.85;;;4.10;;
70320;SDS011;61127;55.826;37.046;2023-08-20T09:25:39;6.13;;;4.00;;
70320;SDS011;61127;55.826;37.046;2023-08-20T09:28:06;4.80;;;3.70;;
70320;SDS011;61127;55.826;37.046;2023-08-20T09:30:32;4.72;;;3.60;;
70320;SDS011;61127;55.826;37.046;2023-08-20T09:33:03;6.25;;;4.18;;
70320;SDS011;61127;55.826;37.046;2023-08-20T09:35:30;5.05;;;3.50;;
70320;SDS011;61127;55.826;37.046;2023-08-20T09:38:05;5.20;;;3.50;;
70320;SDS011;61127;55.826;37.046;2023-08-20T09:40:31;4.65;;;3.45;;
70320;SDS011;61127;55.826;37.046;2023-08-20T09:42:57;4.72;;;3.85;;
70320;SDS011;61127;55.826;37.046;2023-08-20T09:45:27;6.22;;;4.32;;
70320;SDS011;61127;55.826;37.046;2023-08-20T09:47:54;4.75;;;4.20;;
70320;SDS011;61127;55.826;37.046;2023-08-20T09:50:22;5.63;;;4.33;;
70320;SDS011;61127;55.826;37.046;2023-08-20T09:52:55;4.50;;;4.00;;
70320;SDS011;61127;55.826;37.046;2023-08-20T09:55:26;7.80;;;4.22;;
70320;SDS011;61127;55.826;37.046;2023-08-20T09:57:58;5.53;;;4.07;;
70320;SDS011;61127;55.826;37.046;2023-08-20T10:00:26;5.72;;;3.92;;
70320;SDS011;61127;55.826;37.046;2023-08-20T10:02:53;4.67;;;3.93;;
70320;SDS011;61127;55.826;37.046;2023-08-20T10:05:20;4.50;;;3.88;;
70320;SDS011;61127;55.826;37.046;2023-08-20T10:07:48;6.60;;;4.00;;
70320;SDS011;61127;55.826;37.046;2023-08-20T10:10:14;5.28;;;4.13;;
70320;SDS011;61127;55.826;37.046;2023-08-20T10:12:42;5.72;;;4.30;;
70320;SDS011;61127;55.826;37.046;2023-08-20T10:15:11;6.07;;;3.87;;
70320;SDS011;61127;55.826;37.046;2023-08-20T10:17:39;5.85;;;3.75;;
70320;SDS011;61127;55.826;37.046;2023-08-20T10:20:08;5.43;;;4.20;;
70320;SDS011;61127;55.826;37.046;2023-08-20T10:22:42;5.32;;;4.00;;
70320;SDS011;61127;55.826;37.046;2023-08-20T10:25:10;5.07;;;4.20;;
70320;SDS011;61127;55.826;37.046;2023-08-20T10:27:38;4.97;;;3.90;;
70320;SDS011;61127;55.826;37.046;2023-08-20T10:30:25;5.63;;;4.25;;
70320;SDS011;61127;55.826;37.046;2023-08-20T10:32:57;7.13;;;3.92;;
70320;SDS011;61127;55.826;37.046;2023-08-20T10:35:27;4.25;;;3.70;;
70320;SDS011;61127;55.826;37.046;2023-08-20T10:38:15;5.60;;;4.22;;
70320;SDS011;61127;55.826;37.046;2023-08-20T10:40:54;6.30;;;4.37;;
70320;SDS011;61127;55.826;37.046;2023-08-20T10:43:28;6.07;;;4.20;;
70320;SDS011;61127;55.826;37.046;2023-08-20T10:46:28;4.85;;;4.35;;
70320;SDS011;61127;55.826;37.046;2023-08-20T10:48:52;4.47;;;3.92;;
70320;SDS011;61127;55.826;37.046;2023-08-20T10:51:28;5.22;;;4.07;;
70320;SDS011;61127;55.826;37.046;2023-08-20T10:59:33;7.50;;;4.32;;
70320;SDS011;61127;55.826;37.046;2023-08-20T11:02:05;6.15;;;4.20;;
70320;SDS011;61127;55.826;37.046;2023-08-20T11:04:43;5.32;;;4.60;;
70320;SDS011;61127;55.826;37.046;2023-08-20T11:07:10;6.40;;;4.33;;
70320;SDS011;61127;55.826;37.046;2023-08-20T11:09:36;5.72;;;3.90;;
70320;SDS011;61127;55.826;37.046;2023-08-20T11:12:05;5.18;;;4.18;;
70320;SDS011;61127;55.826;37.046;2023-08-20T11:14:31;5.60;;;4.45;;
70320;SDS011;61127;55.826;37.046;2023-08-20T11:16:57;8.75;;;5.65;;
70320;SDS011;61127;55.826;37.046;2023-08-20T11:19:23;9.07;;;4.60;;
70320;SDS011;61127;55.826;37.046;2023-08-20T11:21:49;5.93;;;4.78;;
70320;SDS011;61127;55.826;37.046;2023-08-20T11:24:16;6.47;;;4.55;;
70320;SDS011;61127;55.826;37.046;2023-08-20T11:26:46;6.60;;;4.80;;
70320;SDS011;61127;55.826;37.046;2023-08-20T11:29:13;6.30;;;4.80;;
70320;SDS011;61127;55.826;37.046;2023-08-20T11:31:49;8.10;;;5.80;;
70320;SDS011;61127;55.826;37.046;2023-08-20T11:34:16;11.52;;;6.20;;
70320;SDS011;61127;55.826;37.046;2023-08-20T11:36:44;6.78;;;5.07;;
70320;SDS011;61127;55.826;37.046;2023-08-20T11:39:10;7.00;;;4.57;;
70320;SDS011;61127;55.826;37.046;2023-08-20T11:41:36;6.47;;;4.23;;
70320;SDS011;61127;55.826;37.046;2023-08-20T11:44:04;7.60;;;4.25;;
70320;SDS011;61127;55.826;37.046;2023-08-20T11:46:31;6.55;;;4.50;;
70320;SDS011;61127;55.826;37.046;2023-08-20T11:49:08;6.63;;;4.63;;
70320;SDS011;61127;55.826;37.046;2023-08-20T11:51:35;6.85;;;4.10;;
70320;SDS011;61127;55.826;37.046;2023-08-20T11:54:13;5.57;;;4.30;;
70320;SDS011;61127;55.826;37.046;2023-08-20T11:56:49;6.75;;;4.07;;
70320;SDS011;61127;55.826;37.046;2023-08-20T11:59:17;5.22;;;4.60;;
70320;SDS011;61127;55.826;37.046;2023-08-20T12:02:24;6.40;;;4.78;;
70320;SDS011;61127;55.826;37.046;2023-08-20T12:04:37;7.32;;;5.20;;
70320;SDS011;61127;55.826;37.046;2023-08-20T12:07:08;8.07;;;5.70;;
70320;SDS011;61127;55.826;37.046;2023-08-20T12:09:39;10.27;;;8.30;;
70320;SDS011;61127;55.826;37.046;2023-08-20T12:12:05;11.40;;;7.30;;
70320;SDS011;61127;55.826;37.046;2023-08-20T12:14:32;8.07;;;6.90;;
70320;SDS011;61127;55.826;37.046;2023-08-20T12:16:59;13.07;;;8.90;;
70320;SDS011;61127;55.826;37.046;2023-08-20T12:19:25;9.97;;;7.03;;
70320;SDS011;61127;55.826;37.046;2023-08-20T12:21:51;11.18;;;7.30;;
70320;SDS011;61127;55.826;37.046;2023-08-20T12:24:17;9.52;;;7.07;;
70320;SDS011;61127;55.826;37.046;2023-08-20T12:26:44;10.90;;;7.53;;
70320;SDS011;61127;55.826;37.046;2023-08-20T12:29:11;12.48;;;8.48;;
70320;SDS011;61127;55.826;37.046;2023-08-20T12:31:37;13.63;;;10.93;;
70320;SDS011;61127;55.826;37.046;2023-08-20T12:34:03;18.20;;;13.60;;
70320;SDS011;61127;55.826;37.046;2023-08-20T12:36:29;16.95;;;13.10;;
70320;SDS011;61127;55.826;37.046;2023-08-20T12:38:56;15.50;;;12.50;;
70320;SDS011;61127;55.826;37.046;2023-08-20T12:41:21;10.85;;;8.00;;
70320;SDS011;61127;55.826;37.046;2023-08-20T12:43:48;11.20;;;6.53;;
70320;SDS011;61127;55.826;37.046;2023-08-20T12:46:14;10.40;;;6.47;;
70320;SDS011;61127;55.826;37.046;2023-08-20T12:48:40;10.45;;;5.70;;
70320;SDS011;61127;55.826;37.046;2023-08-20T12:51:05;8.93;;;5.80;;
70320;SDS011;61127;55.826;37.046;2023-08-20T12:53:33;8.70;;;5.77;;
70320;SDS011;61127;55.826;37.046;2023-08-20T12:55:58;7.38;;;5.78;;
70320;SDS011;61127;55.826;37.046;2023-08-20T12:58:24;11.00;;;5.82;;
70320;SDS011;61127;55.826;37.046;2023-08-20T13:00:50;10.15;;;6.63;;
70320;SDS011;61127;55.826;37.046;2023-08-20T13:03:17;10.60;;;7.47;;
70320;SDS011;61127;55.826;37.046;2023-08-20T13:05:44;11.70;;;8.25;;
70320;SDS011;61127;55.826;37.046;2023-08-20T13:08:10;11.02;;;8.15;;
70320;SDS011;61127;55.826;37.046;2023-08-20T13:10:44;12.55;;;8.18;;
70320;SDS011;61127;55.826;37.046;2023-08-20T13:13:15;9.07;;;6.53;;
70320;SDS011;61127;55.826;37.046;2023-08-20T13:15:46;9.33;;;6.30;;
70320;SDS011;61127;55.826;37.046;2023-08-20T13:18:12;8.80;;;5.85;;
70320;SDS011;61127;55.826;37.046;2023-08-20T13:20:39;10.52;;;6.10;;
70320;SDS011;61127;55.826;37.046;2023-08-20T13:23:05;7.30;;;5.88;;
70320;SDS011;61127;55.826;37.046;2023-08-20T13:25:31;9.43;;;6.32;;
70320;SDS011;61127;55.826;37.046;2023-08-20T13:27:57;7.90;;;6.20;;
70320;SDS011;61127;55.826;37.046;2023-08-20T13:30:23;9.35;;;6.80;;
70320;SDS011;61127;55.826;37.046;2023-08-20T13:32:50;9.95;;;6.70;;
70320;SDS011;61127;55.826;37.046;2023-08-20T13:35:16;8.27;;;6.10;;
70320;SDS011;61127;55.826;37.046;2023-08-20T13:37:44;8.57;;;6.25;;
70320;SDS011;61127;55.826;37.046;2023-08-20T13:40:10;8.50;;;6.53;;
70320;SDS011;61127;55.826;37.046;2023-08-20T13:42:37;7.55;;;6.20;;
70320;SDS011;61127;55.826;37.046;2023-08-20T13:45:03;10.02;;;6.45;;
70320;SDS011;61127;55.826;37.046;2023-08-20T13:47:29;8.80;;;6.57;;
70320;SDS011;61127;55.826;37.046;2023-08-20T13:49:55;8.20;;;6.60;;
70320;SDS011;61127;55.826;37.046;2023-08-20T13:52:25;7.93;;;6.30;;
70320;SDS011;61127;55.826;37.046;2023-08-20T13:54:52;10.52;;;7.40;;
70320;SDS011;61127;55.826;37.046;2023-08-20T13:57:18;13.50;;;7.63;;
70320;SDS011;61127;55.826;37.046;2023-08-20T13:59:44;11.63;;;6.93;;
70320;SDS011;61127;55.826;37.046;2023-08-20T14:02:10;9.98;;;7.28;;
70320;SDS011;61127;55.826;37.046;2023-08-20T14:04:37;12.07;;;6.80;;
70320;SDS011;61127;55.826;37.046;2023-08-20T14:07:03;9.73;;;7.43;;
70320;SDS011;61127;55.826;37.046;2023-08-20T14:09:32;9.80;;;7.32;;
70320;SDS011;61127;55.826;37.046;2023-08-20T14:12:00;9.10;;;7.10;;
70320;SDS011;61127;55.826;37.046;2023-08-20T14:14:26;9.37;;;7.40;;
70320;SDS011;61127;55.826;37.046;2023-08-20T14:16:52;11.20;;;7.78;;
70320;SDS011;61127;55.826;37.046;2023-08-20T14:19:18;10.07;;;7.57;;
70320;SDS011;61127;55.826;37.046;2023-08-20T14:21:44;9.98;;;8.07;;
70320;SDS011;61127;55.826;37.046;2023-08-20T14:24:10;10.70;;;7.60;;
70320;SDS011;61127;55.826;37.046;2023-08-20T14:26:36;10.88;;;7.85;;
70320;SDS011;61127;55.826;37.046;2023-08-20T14:29:02;13.00;;;7.63;;
70320;SDS011;61127;55.826;37.046;2023-08-20T14:31:28;10.70;;;7.87;;
70320;SDS011;61127;55.826;37.046;2023-08-20T14:33:54;10.43;;;8.00;;
70320;SDS011;61127;55.826;37.046;2023-08-20T14:36:20;11.30;;;8.00;;
70320;SDS011;61127;55.826;37.046;2023-08-20T14:38:46;9.65;;;7.65;;
70320;SDS011;61127;55.826;37.046;2023-08-20T14:41:12;11.00;;;8.13;;